Time;durP1;ratioP1;P1;durP2;ratioP2;P2;SDS_P1;SDS_P2;PMS_P1;PMS_P2;Temp;Humidity;BMP_temperature;BMP_pressure;BME280_temperature;BME280_humidity;BME280_pressure;Samples;Min_cycle;Max_cycle;Signal;HPM_P1;HPM_P2
2021/04/06 00:00:12;;;;;;;3.55;0.95;;;1.20;98.60;;;;;;5068649;28;20028;-77
2021/04/06 00:02:42;;;;;;;8.48;1.50;;;1.20;98.60;;;;;;5075773;28;20033;-77
2021/04/06 00:05:11;;;;;;;8.43;0.73;;;1.30;98.40;;;;;;5080781;28;20042;-77
2021/04/06 00:07:39;;;;;;;4.70;1.02;;;1.40;98.10;;;;;;5079544;28;20106;-77
2021/04/06 00:10:22;;;;;;;11.05;0.85;;;1.40;98.00;;;;;;5073390;28;20045;-77
2021/04/06 00:12:51;;;;;;;8.25;1.27;;;1.30;97.90;;;;;;5082308;28;20050;-78
2021/04/06 00:15:19;;;;;;;9.38;1.30;;;1.30;98.10;;;;;;5067391;28;20130;-77
2021/04/06 00:17:51;;;;;;;5.60;0.90;;;1.30;98.20;;;;;;5081803;28;20052;-77
2021/04/06 00:20:19;;;;;;;7.80;0.98;;;1.40;98.20;;;;;;5074036;28;20078;-77
2021/04/06 00:22:47;;;;;;;13.35;1.70;;;1.40;98.30;;;;;;5083886;28;20040;-77
2021/04/06 00:25:22;;;;;;;6.97;1.38;;;1.30;98.40;;;;;;5070595;28;20048;-77
2021/04/06 00:27:50;;;;;;;;;;;1.30;98.40;;;;;;5073265;28;20726;-77
2021/04/06 00:30:29;;;;;;;14.65;2.22;;;1.20;98.70;;;;;;5073802;28;19928;-76
2021/04/06 00:33:18;;;;;;;10.30;1.20;;;1.10;98.70;;;;;;5072176;28;20032;-77
2021/04/06 00:35:52;;;;;;;11.73;2.15;;;1.00;98.80;;;;;;5068043;28;20059;-78
2021/04/06 00:38:19;;;;;;;;;;;1.00;98.80;;;;;;5080952;28;20044;-77
2021/04/06 00:40:48;;;;;;;10.85;1.60;;;1.00;99.20;;;;;;5068485;28;19995;-78
2021/04/06 00:43:16;;;;;;;11.30;1.83;;;0.90;99.20;;;;;;5084410;28;20036;-78
2021/04/06 00:45:45;;;;;;;15.65;1.88;;;0.90;99.00;;;;;;5076460;28;20048;-76
2021/04/06 00:48:16;;;;;;;7.88;2.03;;;0.90;99.10;;;;;;5066654;28;20040;-76
2021/04/06 00:51:13;;;;;;;14.35;2.03;;;0.90;99.20;;;;;;5075942;28;20133;-76
2021/04/06 00:53:59;;;;;;;10.75;1.67;;;0.90;99.10;;;;;;5073905;28;20053;-77
2021/04/06 00:56:30;;;;;;;13.98;1.90;;;0.90;99.00;;;;;;5077789;28;20036;-76
2021/04/06 00:59:02;;;;;;;11.90;1.90;;;0.90;99.00;;;;;;5080540;28;20040;-77
2021/04/06 01:01:29;;;;;;;12.00;1.60;;;0.80;99.00;;;;;;5083214;28;20059;-77
2021/04/06 01:03:58;;;;;;;12.95;1.52;;;0.80;98.90;;;;;;5074959;28;20044;-77
2021/04/06 01:06:25;;;;;;;11.57;1.75;;;0.70;98.80;;;;;;5092362;28;20502;-77
2021/04/06 01:08:53;;;;;;;16.00;2.58;;;0.70;98.80;;;;;;5073759;28;20055;-76
2021/04/06 01:11:20;;;;;;;15.70;1.70;;;0.70;98.80;;;;;;5084566;28;20172;-76
2021/04/06 01:13:47;;;;;;;10.95;2.22;;;0.60;98.90;;;;;;5075292;28;20094;-77
2021/04/06 01:16:13;;;;;;;13.45;1.70;;;0.60;98.90;;;;;;5079299;28;20559;-77
2021/04/06 01:18:40;;;;;;;13.48;2.63;;;0.70;99.20;;;;;;5069660;28;20052;-77
2021/04/06 01:21:12;;;;;;;12.90;1.92;;;0.70;99.40;;;;;;5075208;28;20124;-77
2021/04/06 01:23:39;;;;;;;11.23;2.13;;;0.80;99.40;;;;;;5074274;28;20095;-76
2021/04/06 01:26:10;;;;;;;12.27;1.85;;;0.80;99.60;;;;;;5077633;28;20036;-76
2021/04/06 01:28:36;;;;;;;15.82;1.90;;;0.90;99.50;;;;;;5080411;28;20033;-76
2021/04/06 01:31:04;;;;;;;15.02;2.42;;;0.90;99.50;;;;;;5075232;28;20047;-77
2021/04/06 01:33:32;;;;;;;13.82;1.85;;;0.90;99.50;;;;;;5074584;28;20504;-77
2021/04/06 01:36:04;;;;;;;10.05;1.63;;;0.90;99.60;;;;;;5084341;28;20040;-76
2021/04/06 01:38:30;;;;;;;17.02;2.10;;;0.90;99.50;;;;;;5075430;28;20042;-76
2021/04/06 01:40:58;;;;;;;12.30;1.98;;;0.90;99.50;;;;;;5075412;28;20481;-77
2021/04/06 01:43:35;;;;;;;9.93;1.70;;;0.90;99.40;;;;;;5075363;28;20105;-76
2021/04/06 01:46:14;;;;;;;9.90;1.65;;;0.80;99.30;;;;;;5073986;28;20431;-76
2021/04/06 01:48:40;;;;;;;16.50;2.17;;;0.80;99.30;;;;;;5077494;28;20400;-77
2021/04/06 01:51:06;;;;;;;14.77;2.25;;;0.80;99.30;;;;;;5080509;28;20048;-77
2021/04/06 01:53:34;;;;;;;14.63;1.75;;;0.70;99.40;;;;;;5074705;28;20044;-77
2021/04/06 01:56:18;;;;;;;8.57;1.92;;;0.70;99.30;;;;;;5080340;28;20712;-77
2021/04/06 01:58:50;;;;;;;14.77;2.78;;;0.70;99.20;;;;;;5084589;28;20051;-76
2021/04/06 02:01:24;;;;;;;18.63;1.80;;;0.70;99.30;;;;;;5087212;28;20047;-76
2021/04/06 02:06:28;;;;;;;10.60;2.17;;;0.60;99.30;;;;;;5067800;28;20044;-75
2021/04/06 02:08:55;;;;;;;13.48;2.05;;;0.50;99.30;;;;;;5077708;28;20477;-75
2021/04/06 02:11:27;;;;;;;11.13;1.90;;;0.50;99.30;;;;;;5074553;28;20028;-75
2021/04/06 02:14:08;;;;;;;14.82;2.10;;;0.50;99.30;;;;;;5075390;28;20035;-76
2021/04/06 02:17:05;;;;;;;12.85;1.50;;;0.50;99.40;;;;;;5073978;28;20115;-76
2021/04/06 02:19:31;;;;;;;12.43;1.98;;;0.50;99.40;;;;;;5086521;28;20091;-76
2021/04/06 02:21:59;;;;;;;22.67;2.33;;;0.40;99.40;;;;;;5069814;28;20388;-75
2021/04/06 02:24:28;;;;;;;15.45;1.60;;;0.40;99.40;;;;;;5077574;28;20032;-75
2021/04/06 02:27:01;;;;;;;19.25;1.80;;;0.40;99.40;;;;;;5070171;28;20048;-75
2021/04/06 02:29:27;;;;;;;14.95;1.65;;;0.40;99.40;;;;;;5075000;28;20660;-75
2021/04/06 02:31:53;;;;;;;18.63;2.35;;;0.30;99.40;;;;;;5071703;28;20081;-76
2021/04/06 02:34:19;;;;;;;18.50;2.63;;;0.30;99.40;;;;;;5074466;28;20106;-76
2021/04/06 02:36:46;;;;;;;26.77;3.17;;;0.30;99.40;;;;;;5068567;28;20053;-76
2021/04/06 02:39:12;;;;;;;15.55;2.13;;;0.30;99.50;;;;;;5078480;28;20051;-76
2021/04/06 02:41:38;;;;;;;14.38;2.60;;;0.30;99.50;;;;;;5074888;28;20042;-76
2021/04/06 02:44:04;;;;;;;24.73;3.58;;;0.40;99.70;;;;;;5080844;28;20111;-75
2021/04/06 02:46:30;;;;;;;21.38;3.13;;;0.50;99.70;;;;;;5067476;28;20473;-76
2021/04/06 02:48:58;;;;;;;20.02;3.10;;;0.50;99.60;;;;;;5079752;28;20079;-75
2021/04/06 02:51:25;;;;;;;18.52;2.97;;;0.60;99.50;;;;;;5067740;28;20115;-75
2021/04/06 02:53:52;;;;;;;17.58;3.25;;;0.60;99.40;;;;;;5079493;28;20713;-75
2021/04/06 02:56:35;;;;;;;25.33;3.22;;;0.60;99.30;;;;;;5067517;28;20079;-76
2021/04/06 02:59:21;;;;;;;22.13;2.92;;;0.60;99.30;;;;;;5077666;28;20097;-76
2021/04/06 03:01:49;;;;;;;19.42;2.55;;;0.60;99.20;;;;;;5072757;28;20131;-76
2021/04/06 03:04:21;;;;;;;19.25;2.70;;;0.60;99.10;;;;;;5074700;28;20137;-76
2021/04/06 03:06:48;;;;;;;16.00;2.70;;;0.60;99.40;;;;;;5068501;28;20144;-76
2021/04/06 03:09:15;;;;;;;16.30;2.95;;;0.60;99.00;;;;;;5074384;28;20047;-76
2021/04/06 03:11:45;;;;;;;16.92;2.50;;;0.50;98.90;;;;;;5073640;28;20489;-75
2021/04/06 03:14:11;;;;;;;25.38;3.58;;;0.50;98.90;;;;;;5083122;28;20051;-75
2021/04/06 03:16:38;;;;;;;19.25;3.10;;;0.50;98.90;;;;;;5073838;28;20068;-75
2021/04/06 03:19:05;;;;;;;18.75;2.80;;;0.50;98.90;;;;;;5074962;28;20075;-75
2021/04/06 03:21:33;;;;;;;25.98;3.95;;;0.50;99.00;;;;;;5074540;28;20044;-75
2021/04/06 03:24:00;;;;;;;21.30;4.18;;;0.60;99.40;;;;;;5071095;28;20368;-75
2021/04/06 03:26:28;;;;;;;22.42;4.22;;;0.50;98.90;;;;;;5078105;28;20037;-75
2021/04/06 03:29:00;;;;;;;24.10;3.60;;;0.50;98.90;;;;;;5074008;28;20051;-76
2021/04/06 03:31:32;;;;;;;29.02;4.50;;;0.50;98.90;;;;;;5076027;28;20063;-76
2021/04/06 03:34:00;;;;;;;30.25;4.20;;;0.60;98.90;;;;;;5071821;28;20040;-75
2021/04/06 03:36:31;;;;;;;27.85;3.53;;;0.60;99.00;;;;;;5077805;28;20086;-75
2021/04/06 03:39:05;;;;;;;24.45;3.53;;;0.60;99.00;;;;;;5067258;28;20035;-75
2021/04/06 03:41:32;;;;;;;25.77;4.15;;;0.60;99.00;;;;;;5074599;28;20574;-75
2021/04/06 03:44:07;;;;;;;20.08;3.75;;;0.60;98.90;;;;;;5068412;28;20460;-74
2021/04/06 03:46:34;;;;;;;23.67;3.20;;;0.60;98.80;;;;;;5078174;28;20157;-74
2021/04/06 03:49:20;;;;;;;28.65;4.93;;;0.60;98.80;;;;;;5070640;28;20041;-75
2021/04/06 03:51:57;;;;;;;22.17;3.65;;;0.60;98.70;;;;;;5078823;28;20050;-74
2021/04/06 03:54:36;;;;;;;27.10;4.80;;;0.60;98.60;;;;;;5066455;28;20036;-75
2021/04/06 03:57:23;;;;;;;24.92;4.03;;;0.60;98.60;;;;;;5072114;28;20064;-75
2021/04/06 03:59:49;;;;;;;21.88;3.22;;;0.60;98.60;;;;;;5072886;28;20138;-75
2021/04/06 04:02:15;;;;;;;27.13;3.42;;;0.60;98.60;;;;;;5073475;28;20071;-75
2021/04/06 04:04:41;;;;;;;22.08;3.80;;;0.60;98.70;;;;;;5067788;28;20086;-75
2021/04/06 04:07:08;;;;;;;19.77;2.92;;;0.60;98.70;;;;;;5072980;28;20087;-75
2021/04/06 04:09:34;;;;;;;22.20;3.33;;;0.70;98.80;;;;;;5071272;28;20561;-75
2021/04/06 04:12:00;;;;;;;17.30;2.95;;;0.70;99.00;;;;;;5072081;28;20094;-75
2021/04/06 04:14:26;;;;;;;16.20;2.92;;;0.80;98.30;;;;;;5069425;28;20069;-75
2021/04/06 04:16:53;;;;;;;11.70;2.28;;;0.90;98.00;;;;;;5074645;28;20111;-76
2021/04/06 04:19:19;;;;;;;8.93;1.38;;;1.10;97.10;;;;;;5072024;28;20119;-77
2021/04/06 04:21:46;;;;;;;6.53;1.08;;;1.10;97.50;;;;;;5078039;28;20148;-75
2021/04/06 04:24:12;;;;;;;11.02;1.83;;;1.10;96.20;;;;;;5069910;28;20111;-78
2021/04/06 04:26:38;;;;;;;9.25;1.52;;;1.10;96.00;;;;;;5068134;28;20112;-78
2021/04/06 04:29:04;;;;;;;5.28;1.30;;;1.20;96.00;;;;;;5079560;28;20399;-78
2021/04/06 04:31:30;;;;;;;9.60;1.13;;;1.00;95.80;;;;;;5072603;28;20141;-77
2021/04/06 04:33:56;;;;;;;8.95;1.48;;;1.00;96.00;;;;;;5077079;28;20109;-77
2021/04/06 04:36:22;;;;;;;13.18;2.45;;;0.90;96.30;;;;;;5069298;28;20667;-78
2021/04/06 04:38:48;;;;;;;7.40;2.30;;;0.80;96.60;;;;;;5070019;28;20052;-77
2021/04/06 04:41:13;;;;;;;7.07;1.15;;;0.80;96.70;;;;;;5070620;28;20044;-77
2021/04/06 04:43:39;;;;;;;14.18;2.25;;;0.70;97.10;;;;;;5075831;28;20036;-78
2021/04/06 04:46:05;;;;;;;9.55;1.65;;;0.70;96.90;;;;;;5078823;28;20048;-78
2021/04/06 04:48:31;;;;;;;14.23;2.22;;;0.60;96.80;;;;;;5075173;28;20064;-78
2021/04/06 04:50:57;;;;;;;14.85;1.83;;;0.60;96.90;;;;;;5075669;28;20119;-78
2021/04/06 04:53:22;;;;;;;9.18;1.55;;;0.60;96.90;;;;;;5075841;28;20136;-77
2021/04/06 04:55:48;;;;;;;9.63;1.58;;;0.60;96.80;;;;;;5079364;28;20043;-77
2021/04/06 04:58:14;;;;;;;11.93;2.35;;;0.50;96.70;;;;;;5075895;28;20086;-78
2021/04/06 05:00:40;;;;;;;11.43;2.38;;;0.60;96.60;;;;;;5074161;28;20029;-78
2021/04/06 05:03:06;;;;;;;14.55;2.17;;;0.60;96.70;;;;;;5069019;28;20044;-77
2021/04/06 05:05:32;;;;;;;10.40;1.83;;;0.50;96.60;;;;;;5073898;28;20057;-77
2021/04/06 05:07:57;;;;;;;10.98;2.13;;;0.50;96.50;;;;;;5069669;28;20039;-78
2021/04/06 05:10:24;;;;;;;9.45;1.77;;;0.50;96.60;;;;;;5084801;28;20125;-79
2021/04/06 05:12:50;;;;;;;17.52;2.50;;;0.40;96.70;;;;;;5078957;28;20462;-78
2021/04/06 05:15:16;;;;;;;14.10;2.33;;;0.40;96.80;;;;;;5077632;28;20132;-78
2021/04/06 05:17:42;;;;;;;8.73;1.60;;;0.30;97.00;;;;;;5075408;28;20430;-77
2021/04/06 05:20:09;;;;;;;11.27;1.77;;;0.30;97.10;;;;;;5081710;28;20033;-76
2021/04/06 05:22:36;;;;;;;12.70;1.92;;;0.20;97.10;;;;;;5081075;28;20053;-77
2021/04/06 05:25:03;;;;;;;16.20;1.83;;;0.30;97.00;;;;;;5076950;28;20093;-77
2021/04/06 05:27:29;;;;;;;14.48;1.77;;;0.30;96.90;;;;;;5072682;28;20048;-76
2021/04/06 05:29:55;;;;;;;11.23;2.10;;;0.30;96.90;;;;;;5078663;28;20029;-76
2021/04/06 05:32:21;;;;;;;15.68;2.38;;;0.40;97.00;;;;;;5071096;28;20066;-76
2021/04/06 05:34:47;;;;;;;9.50;2.17;;;0.50;96.70;;;;;;5083696;28;20097;-75
2021/04/06 05:37:13;;;;;;;9.10;1.63;;;0.50;96.70;;;;;;5067818;28;20032;-76
2021/04/06 05:39:39;;;;;;;14.90;2.13;;;0.50;96.80;;;;;;5079542;28;20074;-76
2021/04/06 05:42:06;;;;;;;18.25;2.47;;;0.60;96.80;;;;;;5077004;28;20481;-77
2021/04/06 05:44:33;;;;;;;12.55;2.25;;;0.70;96.70;;;;;;5074144;28;20046;-78
2021/04/06 05:47:02;;;;;;;20.85;2.88;;;0.70;96.80;;;;;;5078815;28;20567;-77
2021/04/06 05:49:31;;;;;;;14.45;2.13;;;0.80;97.00;;;;;;5076561;28;20059;-78
2021/04/06 05:51:56;;;;;;;19.60;2.45;;;0.90;97.10;;;;;;5078771;28;20688;-78
2021/04/06 05:54:25;;;;;;;12.05;2.30;;;1.10;97.20;;;;;;5072027;28;20132;-79
2021/04/06 05:56:50;;;;;;;11.75;2.13;;;1.20;97.30;;;;;;5082537;28;20052;-79
2021/04/06 05:59:16;;;;;;;11.43;1.50;;;1.40;97.00;;;;;;5076581;28;20074;-79
2021/04/06 06:01:44;;;;;;;8.38;1.88;;;1.40;96.30;;;;;;5085380;28;20494;-79
2021/04/06 06:04:15;;;;;;;8.88;1.50;;;1.20;96.90;;;;;;5080539;28;20482;-78
2021/04/06 06:06:42;;;;;;;11.65;1.92;;;1.10;97.00;;;;;;5086977;28;20123;-78
2021/04/06 06:09:10;;;;;;;10.35;1.38;;;1.00;97.00;;;;;;5076757;28;20072;-79
2021/04/06 06:11:58;;;;;;;10.93;1.98;;;1.00;97.10;;;;;;5078568;28;20498;-78
2021/04/06 06:14:31;;;;;;;9.48;1.98;;;1.10;97.20;;;;;;5073810;28;20581;-78
2021/04/06 06:16:57;;;;;;;8.02;1.25;;;1.00;97.00;;;;;;5083269;28;20055;-78
2021/04/06 06:19:31;;;;;;;8.27;1.42;;;1.00;97.20;;;;;;5073759;28;20115;-78
2021/04/06 06:22:13;;;;;;;6.75;1.65;;;1.00;97.10;;;;;;5073663;28;20036;-78
2021/04/06 06:24:43;;;;;;;7.13;1.45;;;1.10;97.40;;;;;;5069189;28;20041;-78
2021/04/06 06:27:40;;;;;;;10.23;1.48;;;1.10;97.60;;;;;;5087183;28;20805;-78
2021/04/06 06:30:34;;;;;;;9.32;1.98;;;1.00;97.60;;;;;;5072111;28;20039;-77
2021/04/06 06:33:26;;;;;;;10.67;1.90;;;1.00;97.80;;;;;;5084596;28;20048;-77
2021/04/06 06:35:56;;;;;;;11.07;1.85;;;1.10;97.90;;;;;;5076588;28;20083;-77
2021/04/06 06:38:30;;;;;;;10.07;1.67;;;1.10;98.00;;;;;;5081437;28;20051;-78
2021/04/06 06:41:15;;;;;;;8.70;1.65;;;1.20;98.20;;;;;;5082294;28;20049;-79
2021/04/06 06:43:43;;;;;;;11.75;2.10;;;1.50;98.60;;;;;;5067471;28;20050;-78
2021/04/06 06:46:20;;;;;;;8.50;1.23;;;1.90;98.90;;;;;;5072257;28;20059;-78
2021/04/06 06:48:58;;;;;;;7.45;1.77;;;2.20;98.60;;;;;;5075218;28;20048;-79
2021/04/06 06:51:30;;;;;;;5.60;1.58;;;2.60;98.40;;;;;;5073426;28;20543;-79
2021/04/06 06:53:56;;;;;;;8.38;1.55;;;3.00;98.20;;;;;;5075034;28;20079;-79
2021/04/06 06:56:40;;;;;;;9.40;1.52;;;3.40;97.90;;;;;;5080685;28;20087;-79
2021/04/06 06:59:07;;;;;;;9.30;1.98;;;3.50;95.80;;;;;;5081916;28;20151;-78
2021/04/06 07:01:35;;;;;;;8.80;1.67;;;3.20;95.30;;;;;;5070384;28;20115;-79
2021/04/06 07:04:06;;;;;;;8.15;1.70;;;2.90;95.30;;;;;;5084366;28;20147;-79
2021/04/06 07:06:55;;;;;;;9.98;1.55;;;2.50;95.40;;;;;;5075159;28;20071;-79
2021/04/06 07:09:31;;;;;;;6.40;2.05;;;2.10;95.80;;;;;;5075999;28;20068;-79
2021/04/06 07:12:03;;;;;;;8.50;1.58;;;1.90;96.30;;;;;;5072914;28;20040;-79
2021/04/06 07:14:30;;;;;;;9.32;1.67;;;1.70;96.40;;;;;;5079174;28;20083;-79
2021/04/06 07:17:05;;;;;;;6.03;1.13;;;1.50;96.70;;;;;;5074046;28;20042;-78
2021/04/06 07:19:41;;;;;;;10.50;1.88;;;1.50;96.80;;;;;;5078560;28;20040;-78
2021/04/06 07:22:11;;;;;;;7.40;1.65;;;1.50;97.20;;;;;;5071805;28;20037;-78
2021/04/06 07:24:39;;;;;;;7.43;1.70;;;1.50;97.30;;;;;;5083079;28;20048;-79
2021/04/06 07:27:10;;;;;;;5.25;1.55;;;1.50;97.40;;;;;;5078980;28;20407;-79
2021/04/06 07:29:37;;;;;;;6.68;1.67;;;1.60;97.40;;;;;;5081599;28;20048;-78
2021/04/06 07:32:04;;;;;;;10.43;1.60;;;1.50;97.40;;;;;;5068404;28;20040;-78
2021/04/06 07:34:30;;;;;;;6.45;1.63;;;1.50;97.50;;;;;;5073756;28;20468;-77
2021/04/06 07:37:02;;;;;;;8.85;2.00;;;1.50;97.60;;;;;;5068040;28;20062;-78
2021/04/06 07:39:29;;;;;;;9.07;1.73;;;1.40;97.70;;;;;;5074396;28;20040;-78
2021/04/06 07:41:55;;;;;;;10.25;1.58;;;1.40;97.80;;;;;;5074368;28;20582;-78
2021/04/06 07:44:21;;;;;;;7.82;1.65;;;1.50;98.10;;;;;;5066321;28;20036;-78
2021/04/06 07:46:48;;;;;;;7.03;1.98;;;1.60;98.20;;;;;;5075991;28;20431;-78
2021/04/06 07:49:17;;;;;;;11.05;2.40;;;1.70;98.40;;;;;;5069145;28;20064;-78
2021/04/06 07:51:46;;;;;;;9.77;2.08;;;2.10;98.60;;;;;;5083960;28;20055;-78
2021/04/06 07:54:16;;;;;;;6.57;1.40;;;2.40;98.00;;;;;;5073295;28;20052;-78
2021/04/06 07:56:50;;;;;;;10.65;2.28;;;2.50;97.20;;;;;;5076316;28;20396;-78
2021/04/06 07:59:19;;;;;;;7.53;1.33;;;2.30;96.60;;;;;;5075588;28;20043;-79
2021/04/06 08:01:54;;;;;;;10.50;1.75;;;2.20;96.50;;;;;;5074282;28;20071;-80
2021/04/06 08:04:23;;;;;;;4.85;1.10;;;1.90;96.80;;;;;;5073654;28;20419;-79
2021/04/06 08:06:51;;;;;;;6.20;1.52;;;1.80;97.20;;;;;;5077409;28;20040;-78
2021/04/06 08:09:37;;;;;;;6.68;1.80;;;1.70;97.20;;;;;;5071756;28;20550;-78
2021/04/06 08:12:24;;;;;;;4.63;1.50;;;1.50;97.40;;;;;;5071186;28;20078;-78
2021/04/06 08:14:59;;;;;;;8.95;1.75;;;1.40;97.70;;;;;;5073409;28;20044;-78
2021/04/06 08:17:29;;;;;;;;;;;1.40;98.00;;;;;;5077069;28;20461;-80
2021/04/06 08:20:25;;;;;;;7.45;1.40;;;1.40;98.30;;;;;;5079783;28;19916;-79
2021/04/06 08:23:07;;;;;;;8.43;1.83;;;1.70;98.50;;;;;;5078998;28;20040;-79
2021/04/06 08:25:33;;;;;;;5.95;1.65;;;1.90;98.70;;;;;;5066086;28;20825;-80
2021/04/06 08:28:25;;;;;;;8.52;1.50;;;2.10;98.40;;;;;;5077973;28;20140;-80
2021/04/06 08:30:51;;;;;;;4.65;1.67;;;2.30;98.00;;;;;;5076381;28;20044;-80
2021/04/06 08:33:17;;;;;;;5.50;1.20;;;2.50;97.70;;;;;;5078924;28;20051;-80
2021/04/06 08:35:49;;;;;;;6.97;1.90;;;2.50;96.80;;;;;;5076935;28;20048;-81
2021/04/06 08:38:31;;;;;;;7.10;1.63;;;2.40;96.40;;;;;;5087491;28;20693;-81
2021/04/06 08:41:06;;;;;;;7.90;1.60;;;2.20;96.30;;;;;;5077389;28;20057;-81
2021/04/06 08:43:40;;;;;;;5.90;1.15;;;1.80;96.70;;;;;;5076429;28;20094;-82
2021/04/06 08:46:10;;;;;;;5.03;1.40;;;1.60;97.20;;;;;;5075472;28;20063;-81
2021/04/06 08:48:51;;;;;;;7.38;1.30;;;1.60;97.60;;;;;;5083349;28;20051;-81
2021/04/06 08:51:41;;;;;;;11.23;1.80;;;1.50;97.80;;;;;;5069551;28;20126;-82
2021/04/06 08:54:18;;;;;;;8.52;1.50;;;1.50;97.90;;;;;;5083240;28;20062;-82
2021/04/06 08:57:08;;;;;;;8.50;1.63;;;1.50;98.20;;;;;;5068654;28;20060;-82
2021/04/06 08:59:35;;;;;;;10.95;1.80;;;1.70;98.30;;;;;;5082934;28;20048;-81
2021/04/06 09:02:03;;;;;;;6.88;1.23;;;2.00;98.30;;;;;;5083402;28;20155;-81
2021/04/06 09:04:32;;;;;;;7.93;2.00;;;2.50;98.80;;;;;;5084910;28;20101;-81
2021/04/06 09:06:58;;;;;;;8.23;1.35;;;2.80;98.00;;;;;;5076417;28;20501;-81
2021/04/06 09:09:30;;;;;;;10.75;1.75;;;3.20;98.00;;;;;;5060849;28;20037;-81
2021/04/06 09:11:58;;;;;;;4.75;1.02;;;3.50;97.00;;;;;;5082351;28;20044;-81
2021/04/06 09:14:27;;;;;;;11.00;2.17;;;3.50;96.10;;;;;;5081530;28;20048;-81
2021/04/06 09:16:54;;;;;;;11.63;1.48;;;3.50;95.70;;;;;;5080447;28;20052;-81
2021/04/06 09:19:21;;;;;;;11.38;2.05;;;3.60;96.00;;;;;;5084401;28;20398;-80
2021/04/06 09:21:53;;;;;;;8.90;1.58;;;3.70;95.90;;;;;;5060657;28;20044;-81
2021/04/06 09:24:20;;;;;;;8.70;1.63;;;4.00;95.80;;;;;;5076420;28;20465;-81
2021/04/06 09:26:50;;;;;;;7.35;1.42;;;4.00;94.90;;;;;;5058692;28;20054;-80
2021/04/06 09:29:18;;;;;;;4.38;1.20;;;3.90;94.60;;;;;;5078991;28;20040;-81
2021/04/06 09:31:47;;;;;;;5.35;1.60;;;3.60;94.10;;;;;;5088965;28;20036;-81
2021/04/06 09:34:21;;;;;;;7.03;0.80;;;3.30;94.30;;;;;;5085444;28;20040;-81
2021/04/06 09:37:15;;;;;;;5.45;1.30;;;3.00;94.90;;;;;;5075152;28;20055;-79
2021/04/06 09:39:54;;;;;;;6.35;1.83;;;2.50;94.70;;;;;;5081714;28;20048;-80
2021/04/06 09:42:20;;;;;;;5.22;1.05;;;2.10;95.60;;;;;;5080842;28;20067;-79
2021/04/06 09:44:48;;;;;;;7.22;1.00;;;1.80;96.40;;;;;;5076763;28;20495;-80
2021/04/06 09:47:16;;;;;;;7.18;1.02;;;1.60;97.00;;;;;;5084184;28;20441;-80
2021/04/06 09:49:49;;;;;;;3.17;0.60;;;1.40;97.50;;;;;;5078928;28;20044;-80
2021/04/06 09:52:23;;;;;;;3.10;0.80;;;1.60;97.90;;;;;;5075387;28;20040;-80
2021/04/06 09:54:55;;;;;;;5.25;0.68;;;1.80;98.40;;;;;;5083605;28;20123;-81
2021/04/06 09:57:24;;;;;;;7.75;1.20;;;2.10;98.80;;;;;;5082009;28;20117;-80
2021/04/06 09:59:52;;;;;;;3.75;0.95;;;2.50;98.60;;;;;;5084161;28;20072;-79
2021/04/06 10:02:23;;;;;;;2.55;0.70;;;2.80;98.80;;;;;;5079293;28;20054;-79
2021/04/06 10:04:51;;;;;;;7.28;1.17;;;3.10;98.50;;;;;;5076594;28;20044;-79
2021/04/06 10:07:22;;;;;;;5.32;1.10;;;3.30;97.50;;;;;;5088395;28;20133;-79
2021/04/06 10:09:55;;;;;;;1.70;0.85;;;3.50;96.40;;;;;;5074085;28;20150;-80
2021/04/06 10:12:24;;;;;;;7.65;0.90;;;3.50;95.10;;;;;;5091178;28;20166;-79
2021/04/06 10:14:51;;;;;;;6.80;0.88;;;3.40;95.00;;;;;;5077231;28;20502;-80
2021/04/06 10:17:20;;;;;;;5.97;1.15;;;3.50;95.60;;;;;;5089563;28;20064;-81
2021/04/06 10:20:11;;;;;;;10.88;1.13;;;3.70;95.80;;;;;;5082800;28;20095;-80
2021/04/06 10:22:49;;;;;;;4.70;1.25;;;3.90;95.60;;;;;;5087025;28;20045;-80
2021/04/06 10:25:21;;;;;;;7.50;1.50;;;4.10;95.20;;;;;;5072787;28;20056;-80
2021/04/06 10:27:53;;;;;;;16.48;1.92;;;4.30;95.10;;;;;;5082864;28;20550;-81
2021/04/06 10:30:26;;;;;;;6.68;1.60;;;4.50;95.80;;;;;;5073969;28;20036;-80
2021/04/06 10:33:06;;;;;;;10.13;1.45;;;4.70;94.60;;;;;;5084631;28;20087;-80
2021/04/06 10:35:35;;;;;;;12.32;1.75;;;4.80;94.10;;;;;;5077113;28;20032;-79
2021/04/06 10:38:03;;;;;;;7.47;1.35;;;4.80;93.50;;;;;;5074400;28;20256;-79
2021/04/06 10:40:42;;;;;;;11.43;1.60;;;4.80;92.70;;;;;;5072374;28;20040;-79
2021/04/06 10:43:14;;;;;;;11.20;1.63;;;4.80;92.50;;;;;;5082322;28;20048;-79
2021/04/06 10:45:52;;;;;;;7.53;1.38;;;4.70;92.00;;;;;;5077306;28;20044;-79
2021/04/06 10:48:23;;;;;;;14.05;2.17;;;4.70;93.20;;;;;;5073324;28;20083;-80
2021/04/06 10:51:17;;;;;;;7.82;1.70;;;4.90;93.00;;;;;;5075772;28;20048;-79
2021/04/06 10:53:48;;;;;;;9.10;2.13;;;5.00;92.80;;;;;;5080498;28;20135;-80
2021/04/06 10:56:29;;;;;;;10.48;1.65;;;5.00;90.70;;;;;;5072880;28;20160;-81
2021/04/06 10:59:30;;;;;;;8.25;1.63;;;5.10;91.90;;;;;;5073344;28;20106;-79
2021/04/06 11:01:59;;;;;;;7.57;1.33;;;5.30;91.20;;;;;;5077249;28;20123;-82
2021/04/06 11:04:38;;;;;;;5.90;1.50;;;5.40;88.90;;;;;;5081193;28;20492;-80
2021/04/06 11:07:06;;;;;;;9.70;2.38;;;5.50;87.30;;;;;;5075950;28;20157;-82
2021/04/06 11:09:44;;;;;;;7.40;1.48;;;5.70;90.30;;;;;;5075602;28;20624;-85
2021/04/06 11:12:13;;;;;;;8.00;1.33;;;6.10;87.60;;;;;;5073574;28;20537;-84
2021/04/06 11:14:44;;;;;;;6.05;0.85;;;6.10;85.80;;;;;;5076313;28;20041;-82
2021/04/06 11:17:12;;;;;;;6.45;1.08;;;5.60;86.60;;;;;;5074088;28;20044;-82
2021/04/06 11:19:44;;;;;;;6.05;1.13;;;4.80;88.50;;;;;;5081853;28;20072;-82
2021/04/06 11:22:18;;;;;;;8.82;1.40;;;4.00;90.80;;;;;;5075405;28;20055;-82
2021/04/06 11:24:47;;;;;;;6.63;1.08;;;3.40;91.00;;;;;;5086659;28;20131;-81
2021/04/06 11:27:18;;;;;;;4.47;0.65;;;3.00;91.70;;;;;;5073122;28;20447;-81
2021/04/06 11:29:44;;;;;;;10.35;1.67;;;3.00;93.20;;;;;;5079541;28;20051;-80
2021/04/06 11:32:19;;;;;;;5.93;1.17;;;3.30;93.50;;;;;;5074870;28;20051;-80
2021/04/06 11:34:45;;;;;;;8.95;1.58;;;3.60;93.50;;;;;;5080973;28;20032;-80
2021/04/06 11:37:12;;;;;;;6.97;1.38;;;3.90;92.60;;;;;;5072898;28;20048;-80
2021/04/06 11:39:44;;;;;;;5.90;1.10;;;4.20;92.40;;;;;;5076748;28;20048;-79
2021/04/06 11:42:14;;;;;;;8.55;1.55;;;4.40;91.60;;;;;;5081986;28;20047;-80
2021/04/06 11:44:40;;;;;;;6.32;1.15;;;4.70;91.30;;;;;;5076986;28;20036;-80
2021/04/06 11:47:06;;;;;;;8.68;1.83;;;4.80;86.80;;;;;;5076900;28;20431;-80
2021/04/06 11:49:33;;;;;;;6.07;1.42;;;4.80;86.70;;;;;;5074789;28;20044;-80
2021/04/06 11:51:59;;;;;;;6.05;1.00;;;4.80;88.20;;;;;;5071075;28;20140;-80
2021/04/06 11:54:25;;;;;;;6.72;1.05;;;4.90;86.20;;;;;;5079213;28;20044;-81
2021/04/06 11:56:52;;;;;;;9.07;1.35;;;4.80;82.90;;;;;;5073452;28;20092;-81
2021/04/06 11:59:18;;;;;;;11.50;1.65;;;4.80;85.50;;;;;;5082111;28;20104;-81
2021/04/06 12:01:45;;;;;;;6.38;1.02;;;4.70;86.70;;;;;;5080934;28;20048;-81
2021/04/06 12:04:15;;;;;;;8.63;1.55;;;4.60;86.00;;;;;;5070258;28;20033;-80
2021/04/06 12:06:42;;;;;;;7.10;1.27;;;4.60;86.10;;;;;;5078270;28;20121;-80
2021/04/06 12:09:08;;;;;;;10.65;1.58;;;4.50;87.60;;;;;;5070491;28;20476;-80
2021/04/06 12:11:35;;;;;;;8.95;1.40;;;4.50;88.80;;;;;;5078975;28;20554;-79
2021/04/06 12:14:01;;;;;;;8.88;1.60;;;4.60;87.70;;;;;;5072686;28;20081;-80
2021/04/06 12:19:28;;;;;;;10.43;1.80;;;4.50;88.90;;;;;;5072624;28;20056;-81
2021/04/06 12:22:03;;;;;;;10.40;2.22;;;4.60;90.30;;;;;;5087939;28;20032;-81
2021/04/06 12:24:39;;;;;;;12.57;2.05;;;4.80;91.00;;;;;;5084431;28;20384;-80
2021/04/06 12:27:08;;;;;;;7.40;1.75;;;4.70;88.90;;;;;;5071116;28;20090;-79
2021/04/06 12:29:33;;;;;;;11.07;1.63;;;4.00;89.40;;;;;;5071437;28;20032;-79
2021/04/06 12:32:03;;;;;;;14.75;2.03;;;3.40;90.60;;;;;;5073839;28;20107;-79
2021/04/06 12:34:36;;;;;;;7.70;1.55;;;3.10;91.40;;;;;;5062363;28;20507;-79
2021/04/06 12:37:10;;;;;;;11.13;2.08;;;2.90;92.10;;;;;;5079745;28;20051;-79
2021/04/06 12:39:42;;;;;;;13.57;1.95;;;2.70;92.60;;;;;;5063668;28;20166;-80
2021/04/06 12:42:08;;;;;;;8.88;1.70;;;2.70;92.90;;;;;;5076800;28;20509;-79
2021/04/06 12:44:34;;;;;;;10.63;1.63;;;2.80;92.70;;;;;;5069999;28;20037;-79
2021/04/06 12:46:59;;;;;;;10.30;1.50;;;2.80;92.20;;;;;;5065527;28;20044;-79
2021/04/06 12:49:37;;;;;;;8.38;1.33;;;2.80;92.30;;;;;;5060591;28;20048;-80
2021/04/06 12:52:05;;;;;;;12.23;1.85;;;2.80;92.10;;;;;;5086177;28;20040;-80
2021/04/06 12:54:31;;;;;;;10.30;1.80;;;2.80;92.30;;;;;;5069153;28;20117;-80
2021/04/06 12:56:57;;;;;;;10.68;1.80;;;2.80;92.10;;;;;;5078561;28;20368;-79
2021/04/06 12:59:22;;;;;;;8.60;1.40;;;2.80;92.20;;;;;;5069147;28;20107;-79
2021/04/06 13:01:51;;;;;;;11.93;1.98;;;2.90;92.30;;;;;;5077250;28;20059;-78
2021/04/06 13:04:17;;;;;;;10.75;2.08;;;2.90;92.20;;;;;;5078706;28;20416;-78
2021/04/06 13:06:44;;;;;;;12.07;2.13;;;3.00;92.30;;;;;;5076469;28;20056;-78
2021/04/06 13:09:10;;;;;;;6.20;1.27;;;3.20;92.30;;;;;;5078942;28;20037;-78
2021/04/06 13:11:36;;;;;;;9.15;1.25;;;3.60;91.60;;;;;;5061247;28;20083;-78
2021/04/06 13:14:02;;;;;;;5.10;0.88;;;3.80;90.40;;;;;;5071260;28;20075;-79
2021/04/06 13:16:33;;;;;;;4.50;1.02;;;4.20;86.10;;;;;;5075334;28;20044;-79